Time;durP1;ratioP1;P1;durP2;ratioP2;P2;SDS_P1;SDS_P2;PMS_P1;PMS_P2;Temp;Humidity;BMP_temperature;BMP_pressure;BME280_temperature;BME280_humidity;BME280_pressure;Samples;Min_cycle;Max_cycle;Signal;HPM_P1;HPM_P2
2021/12/20 00:01:52;;;;;;;26.30;16.10;;;;;;;0.14;87.55;96449.38;108149;1272;67743;-75
2021/12/20 00:04:24;;;;;;;17.30;10.10;;;;;;;0.13;87.65;96444.09;108065;1272;59684;-75
2021/12/20 00:06:53;;;;;;;19.90;13.40;;;;;;;0.14;87.36;96442.17;108066;1272;59679;-75
2021/12/20 00:09:22;;;;;;;12.60;7.90;;;;;;;0.14;87.26;96437.39;108067;1272;71531;-75
2021/12/20 00:11:52;;;;;;;20.00;14.10;;;;;;;0.14;87.11;96442.70;108115;1272;68741;-75
2021/12/20 00:14:21;;;;;;;29.10;18.60;;;;;;;0.12;87.24;96442.95;108091;1272;69036;-76
2021/12/20 00:16:51;;;;;;;19.80;13.60;;;;;;;0.11;87.47;96446.27;108081;1272;59703;-75
2021/12/20 00:19:20;;;;;;;25.50;16.60;;;;;;;0.11;87.48;96440.63;108114;1272;59746;-75
2021/12/20 00:21:49;;;;;;;22.80;14.90;;;;;;;0.10;87.66;96442.38;107634;1272;555083;-75
2021/12/20 00:24:20;;;;;;;;;;;;;;;0.10;87.62;96442.73;108132;1272;68467;-75
2021/12/20 00:26:49;;;;;;;24.60;14.90;;;;;;;0.11;87.49;96439.77;108067;1272;69561;-75
2021/12/20 00:29:18;;;;;;;29.50;17.60;;;;;;;0.10;87.59;96445.95;108136;1272;59745;-76
2021/12/20 00:31:48;;;;;;;16.00;10.40;;;;;;;0.08;87.74;96447.06;108125;1272;59713;-76
2021/12/20 00:34:17;;;;;;;20.90;13.90;;;;;;;0.08;87.58;96458.23;108173;1272;71635;-76
2021/12/20 00:36:56;;;;;;;26.10;16.60;;;;;;;0.08;87.59;96456.66;108147;1272;68606;-75
2021/12/20 00:42:14;;;;;;;28.10;17.00;;;;;;;-0.06;88.35;96443.28;108070;1272;59760;-76
2021/12/20 00:44:43;;;;;;;31.60;17.30;;;;;;;-0.14;88.88;96445.35;108119;1272;59744;-76
2021/12/20 00:47:12;;;;;;;19.30;13.10;;;;;;;-0.17;88.76;96448.92;108110;1272;71688;-75
2021/12/20 00:49:42;;;;;;;29.50;17.60;;;;;;;-0.18;88.92;96448.61;108099;1272;68208;-75
2021/12/20 00:52:12;;;;;;;22.90;14.30;;;;;;;-0.23;89.22;96437.35;108068;1272;68587;-76
2021/12/20 00:54:41;;;;;;;77.10;23.10;;;;;;;-0.24;89.39;96429.01;108078;1272;59801;-76
2021/12/20 00:57:11;;;;;;;54.70;20.90;;;;;;;-0.31;89.54;96431.73;108151;1272;59655;-75
2021/12/20 00:59:40;;;;;;;37.70;22.20;;;;;;;-0.37;89.94;96425.83;108160;1272;70979;-76
2021/12/20 01:02:10;;;;;;;28.30;18.20;;;;;;;-0.46;90.57;96415.14;108076;1273;67665;-75
2021/12/20 01:04:39;;;;;;;28.10;16.00;;;;;;;-0.49;91.00;96422.99;108041;1272;69237;-75
2021/12/20 01:07:09;;;;;;;21.60;12.90;;;;;;;-0.48;91.16;96426.52;108119;1269;59757;-75
2021/12/20 01:09:39;;;;;;;25.20;15.70;;;;;;;-0.46;91.07;96422.48;108082;1272;59649;-75
2021/12/20 01:12:15;;;;;;;22.10;13.30;;;;;;;-0.45;91.08;96420.55;108031;1271;71365;-76
2021/12/20 01:14:46;;;;;;;28.30;18.30;;;;;;;-0.44;90.99;96419.13;108140;1272;67976;-76
2021/12/20 01:17:18;;;;;;;27.10;15.60;;;;;;;-0.47;91.13;96411.56;107872;1272;69441;-76
2021/12/20 01:19:48;;;;;;;36.20;18.80;;;;;;;-0.49;91.29;96406.87;108139;1270;59763;-76
2021/12/20 01:22:18;;;;;;;31.30;17.00;;;;;;;-0.51;91.50;96408.67;108107;1272;59697;-76
2021/12/20 01:24:47;;;;;;;32.60;18.70;;;;;;;-0.51;91.55;96408.16;108190;1272;71572;-75
2021/12/20 01:27:17;;;;;;;24.70;15.10;;;;;;;-0.52;91.64;96406.82;108168;1272;67513;-75
2021/12/20 01:29:47;;;;;;;35.90;21.20;;;;;;;-0.50;91.54;96405.21;108110;1272;69416;-75
2021/12/20 01:32:16;;;;;;;34.90;20.00;;;;;;;-0.51;91.59;96410.55;108194;1272;59757;-75
2021/12/20 01:34:47;;;;;;;35.20;20.80;;;;;;;-0.53;91.70;96410.95;108137;1272;59728;-75
2021/12/20 01:37:18;;;;;;;32.60;17.40;;;;;;;-0.54;91.83;96404.52;108196;1272;70639;-76
2021/12/20 01:39:49;;;;;;;24.80;15.00;;;;;;;-0.55;91.96;96396.17;108225;1272;68635;-75
2021/12/20 01:42:21;;;;;;;21.90;12.90;;;;;;;-0.51;91.85;96396.50;108082;1272;69228;-75
2021/12/20 01:44:56;;;;;;;31.40;17.40;;;;;;;-0.43;91.57;96397.90;107923;1273;59773;-76
2021/12/20 01:47:30;;;;;;;29.90;16.80;;;;;;;-0.43;91.44;96395.15;108212;1272;59666;-76
2021/12/20 01:50:15;;;;;;;26.20;15.30;;;;;;;-0.46;91.59;96392.71;108128;1272;71431;-76
2021/12/20 01:52:47;;;;;;;25.50;14.10;;;;;;;-0.50;91.69;96381.79;108162;1272;68681;-76
2021/12/20 01:55:19;;;;;;;;;;;;;;;-0.50;91.78;96379.17;108051;1272;68781;-76
2021/12/20 01:57:50;;;;;;;19.70;10.60;;;;;;;-0.53;91.88;96379.29;108167;1272;59782;-75
2021/12/20 02:00:24;;;;;;;11.80;8.30;;;;;;;-0.52;92.01;96381.16;108026;1272;59808;-75
2021/12/20 02:03:00;;;;;;;23.50;12.30;;;;;;;-0.52;91.98;96374.47;108182;1272;70750;-75
2021/12/20 02:10:47;;;;;;;19.70;13.00;;;;;;;-0.54;91.96;96369.59;108181;1273;59703;-76
2021/12/20 02:13:18;;;;;;;24.50;13.30;;;;;;;-0.57;92.17;96370.27;108102;1272;59687;-75
2021/12/20 02:15:47;;;;;;;26.60;14.80;;;;;;;-0.60;92.36;96374.46;108235;1272;70786;-76
2021/12/20 02:18:18;;;;;;;17.90;11.00;;;;;;;-0.59;92.45;96379.77;108211;1270;68890;-76
2021/12/20 02:20:49;;;;;;;20.20;12.10;;;;;;;-0.59;92.53;96380.45;108264;1269;69416;-77
2021/12/20 02:23:18;;;;;;;;;;;;;;;-0.60;92.61;96379.79;108336;1269;59748;-76
2021/12/20 02:25:49;;;;;;;20.80;11.40;;;;;;;-0.61;92.66;96381.88;108372;1269;59703;-76
2021/12/20 02:28:20;;;;;;;23.40;13.80;;;;;;;-0.60;92.65;96383.55;108139;1272;71527;-76
2021/12/20 02:38:54;;;;;;;31.90;15.60;;;;;;;-0.64;92.97;96379.62;108337;1272;59671;-76
2021/12/20 02:41:29;;;;;;;27.30;16.80;;;;;;;-0.61;92.80;96380.88;108231;1272;70932;-76
2021/12/20 02:44:05;;;;;;;30.90;17.90;;;;;;;-0.68;92.84;96386.48;108378;1269;68641;-74
2021/12/20 02:49:17;;;;;;;32.50;17.20;;;;;;;-0.69;93.01;96377.48;108356;1269;59719;-73
2021/12/20 02:51:50;;;;;;;28.30;16.50;;;;;;;-0.72;93.14;96382.23;108296;1269;59698;-73
2021/12/20 02:54:22;;;;;;;47.10;21.60;;;;;;;-0.74;93.20;96377.54;108400;1269;70796;-74
2021/12/20 02:56:52;;;;;;;37.20;18.00;;;;;;;-0.76;93.37;96374.02;108369;1269;68099;-74
2021/12/20 02:59:21;;;;;;;35.20;19.00;;;;;;;-0.77;93.43;96376.09;108362;1269;69250;-73
2021/12/20 03:02:00;;;;;;;37.50;18.80;;;;;;;-0.75;93.41;96386.81;108487;1269;59709;-74
2021/12/20 03:04:31;;;;;;;37.50;19.40;;;;;;;-0.76;93.51;96391.65;108244;1269;59746;-76
2021/12/20 03:07:08;;;;;;;36.40;19.20;;;;;;;-0.74;93.63;96389.33;108312;1270;70758;-74
2021/12/20 03:09:45;;;;;;;30.50;16.00;;;;;;;-0.71;93.57;96386.45;108354;1273;67854;-73
2021/12/20 03:12:15;;;;;;;16.30;10.00;;;;;;;-0.67;93.51;96392.25;108412;1269;68686;-73
2021/12/20 03:14:48;;;;;;;31.50;17.70;;;;;;;-0.60;93.35;96396.73;108374;1269;59751;-73
2021/12/20 03:17:18;;;;;;;25.20;13.70;;;;;;;-0.59;93.15;96399.45;108373;1269;59680;-74
2021/12/20 03:19:48;;;;;;;;;;;;;;;-0.59;93.04;96401.13;108153;1272;70671;-74
2021/12/20 03:22:19;;;;;;;14.70;9.50;;;;;;;-0.55;92.93;96400.63;108144;1272;67022;-73
2021/12/20 03:24:49;;;;;;;16.90;9.80;;;;;;;-0.48;92.72;96403.75;108224;1272;68602;-73
2021/12/20 03:27:18;;;;;;;13.90;9.30;;;;;;;-0.41;92.53;96414.73;108242;1272;59686;-73
2021/12/20 03:29:48;;;;;;;16.00;10.20;;;;;;;-0.37;92.21;96412.65;108218;1273;59695;-75
2021/12/20 03:32:18;;;;;;;17.10;11.50;;;;;;;-0.33;91.63;96416.94;108151;1272;70756;-75
2021/12/20 03:34:48;;;;;;;18.10;11.10;;;;;;;-0.32;91.34;96416.71;108083;1272;67859;-73
2021/12/20 03:37:19;;;;;;;15.40;9.00;;;;;;;-0.29;91.19;96421.89;108021;1272;68677;-74
2021/12/20 03:39:50;;;;;;;12.70;7.10;;;;;;;-0.24;91.07;96426.47;108129;1272;59760;-74
2021/12/20 03:42:20;;;;;;;;;;;;;;;-0.20;90.97;96431.27;108092;1272;59704;-73
2021/12/20 03:44:49;;;;;;;13.00;8.90;;;;;;;-0.17;90.55;96431.11;108159;1272;71028;-74
2021/12/20 03:47:19;;;;;;;13.80;9.00;;;;;;;-0.14;90.33;96431.83;108077;1272;68609;-73
2021/12/20 03:49:50;;;;;;;15.60;10.10;;;;;;;-0.13;90.19;96438.95;108113;1272;69425;-73
2021/12/20 03:52:19;;;;;;;13.50;8.40;;;;;;;-0.11;90.16;96437.14;108130;1272;59718;-73
2021/12/20 03:54:49;;;;;;;16.30;8.30;;;;;;;-0.07;90.23;96442.27;108134;1272;59679;-73
2021/12/20 03:57:19;;;;;;;15.50;10.50;;;;;;;-0.07;89.89;96438.37;108137;1272;70415;-74
2021/12/20 03:59:53;;;;;;;10.00;6.70;;;;;;;-0.09;89.70;96437.23;108159;1272;67907;-74
2021/12/20 04:02:23;;;;;;;12.40;8.00;;;;;;;-0.12;89.27;96431.39;108154;1272;68653;-74
2021/12/20 04:04:53;;;;;;;14.10;8.20;;;;;;;-0.10;89.25;96430.77;108170;1272;59707;-73
2021/12/20 04:07:23;;;;;;;7.60;5.90;;;;;;;-0.07;89.36;96442.11;108112;1272;59674;-73
2021/12/20 04:09:52;;;;;;;11.80;8.00;;;;;;;-0.04;89.50;96443.88;108131;1272;70806;-74
2021/12/20 04:12:21;;;;;;;10.80;7.80;;;;;;;-0.02;89.30;96440.51;108111;1272;68639;-75
2021/12/20 04:14:51;;;;;;;8.80;6.00;;;;;;;-0.04;87.47;96434.45;108116;1272;69250;-73
2021/12/20 04:17:21;;;;;;;8.50;6.30;;;;;;;0.02;87.87;96444.29;108126;1272;60131;-74
2021/12/20 04:19:50;;;;;;;8.20;5.70;;;;;;;0.01;87.49;96448.27;108126;1272;59732;-73
2021/12/20 04:22:20;;;;;;;7.70;5.90;;;;;;;0.04;87.75;96449.84;108150;1272;71546;-74
2021/12/20 04:24:49;;;;;;;9.60;5.70;;;;;;;0.03;87.45;96449.23;108148;1272;69276;-73
2021/12/20 04:27:18;;;;;;;8.80;5.80;;;;;;;0.01;87.50;96447.41;108103;1272;67654;-73
2021/12/20 04:29:49;;;;;;;8.00;5.70;;;;;;;0.02;87.07;96452.35;108097;1272;59760;-74
2021/12/20 04:32:18;;;;;;;7.20;5.20;;;;;;;0.00;86.91;96444.19;108125;1272;59672;-74
2021/12/20 04:34:48;;;;;;;8.50;4.80;;;;;;;0.05;87.10;96442.94;108175;1272;71580;-73
2021/12/20 04:37:17;;;;;;;7.20;5.40;;;;;;;0.02;86.89;96444.95;108127;1272;68000;-73
2021/12/20 04:39:48;;;;;;;4.90;3.80;;;;;;;-0.01;86.70;96444.57;108158;1272;68477;-74
2021/12/20 04:42:18;;;;;;;7.70;5.10;;;;;;;0.02;86.78;96454.04;108165;1272;59690;-74
2021/12/20 04:44:47;;;;;;;7.20;4.70;;;;;;;-0.01;86.86;96460.15;108084;1272;59628;-74
2021/12/20 04:47:16;;;;;;;7.60;5.20;;;;;;;-0.06;86.51;96459.70;108084;1272;71692;-74
2021/12/20 04:49:46;;;;;;;6.10;4.90;;;;;;;-0.05;86.68;96458.27;108153;1272;68738;-74
2021/12/20 04:52:15;;;;;;;8.30;5.70;;;;;;;-0.04;86.63;96464.92;108142;1272;69263;-74
2021/12/20 04:54:45;;;;;;;9.70;7.00;;;;;;;-0.04;86.52;96469.20;108087;1272;59844;-75
2021/12/20 04:57:14;;;;;;;7.10;4.80;;;;;;;-0.09;86.65;96474.58;108110;1272;59668;-73
2021/12/20 04:59:44;;;;;;;9.20;6.20;;;;;;;-0.07;86.72;96480.30;108092;1270;70922;-74
2021/12/20 05:02:13;;;;;;;9.00;6.50;;;;;;;-0.07;86.57;96479.13;108141;1272;69143;-74
2021/12/20 05:04:42;;;;;;;8.50;6.00;;;;;;;-0.09;86.42;96474.91;108092;1272;68720;-74
2021/12/20 05:07:11;;;;;;;10.30;6.30;;;;;;;-0.09;86.46;96479.71;108112;1272;59686;-74
2021/12/20 05:09:42;;;;;;;10.30;7.20;;;;;;;-0.08;86.48;96482.92;108153;1272;59688;-74
2021/12/20 05:12:14;;;;;;;;;;;;;;;-0.10;86.37;96484.38;108150;1272;70577;-75
2021/12/20 05:14:45;;;;;;;9.10;6.90;;;;;;;-0.15;86.53;96484.77;108111;1272;67864;-75
2021/12/20 05:17:14;;;;;;;10.90;6.50;;;;;;;-0.16;86.72;96484.98;108013;1272;68867;-75
2021/12/20 05:19:44;;;;;;;11.90;8.50;;;;;;;-0.15;86.63;96486.83;108328;1269;59732;-76
2021/12/20 05:22:13;;;;;;;10.70;7.60;;;;;;;-0.20;86.47;96496.65;108356;1269;59659;-75
2021/12/20 05:24:42;;;;;;;10.40;7.10;;;;;;;-0.21;86.59;96501.66;108343;1269;70740;-75
2021/12/20 05:27:12;;;;;;;11.90;6.90;;;;;;;-0.23;86.58;96507.40;108426;1269;67975;-74
2021/12/20 05:29:41;;;;;;;11.60;6.70;;;;;;;-0.24;86.54;96508.50;108368;1271;69326;-75
2021/12/20 05:32:10;;;;;;;11.00;6.50;;;;;;;-0.24;86.32;96503.70;108430;1269;59763;-75
2021/12/20 05:34:39;;;;;;;9.10;6.00;;;;;;;-0.22;86.40;96508.03;108351;1269;59703;-74
2021/12/20 05:37:08;;;;;;;9.60;6.70;;;;;;;-0.20;86.66;96513.58;108435;1269;71622;-75
2021/12/20 05:39:37;;;;;;;10.60;6.60;;;;;;;-0.18;86.50;96510.60;108162;1272;67988;-75
2021/12/20 05:42:07;;;;;;;9.30;6.80;;;;;;;-0.16;86.08;96514.46;108429;1269;67669;-74
2021/12/20 05:44:36;;;;;;;12.40;7.60;;;;;;;-0.15;85.90;96519.20;108383;1269;59712;-74
2021/12/20 05:47:06;;;;;;;10.80;6.80;;;;;;;-0.12;86.01;96522.35;108386;1269;59710;-75
2021/12/20 05:49:35;;;;;;;11.20;7.60;;;;;;;-0.11;85.38;96527.27;108427;1273;70793;-74
2021/12/20 05:52:05;;;;;;;9.80;6.90;;;;;;;-0.14;85.04;96530.80;108387;1270;68114;-74
2021/12/20 05:54:34;;;;;;;13.90;7.90;;;;;;;-0.13;84.95;96534.36;108274;1269;69391;-74
2021/12/20 05:57:04;;;;;;;10.40;8.00;;;;;;;-0.10;85.22;96537.48;108379;1270;59728;-74
2021/12/20 05:59:33;;;;;;;9.70;6.80;;;;;;;-0.11;85.04;96538.70;108499;1269;59626;-75
2021/12/20 06:02:03;;;;;;;12.50;6.70;;;;;;;-0.11;84.88;96548.30;108417;1269;71508;-77
2021/12/20 06:04:33;;;;;;;12.80;7.70;;;;;;;-0.11;83.95;96548.98;108342;1269;68544;-74
2021/12/20 06:07:02;;;;;;;10.00;6.50;;;;;;;-0.11;83.90;96550.55;108320;1269;69598;-74
2021/12/20 06:09:32;;;;;;;10.50;6.30;;;;;;;-0.11;83.88;96551.02;108374;1270;59678;-73
2021/12/20 06:12:01;;;;;;;10.10;6.70;;;;;;;-0.13;83.52;96556.61;108154;1272;59725;-73
2021/12/20 06:14:30;;;;;;;13.20;8.30;;;;;;;-0.15;83.23;96558.79;108321;1269;70948;-74
2021/12/20 06:17:00;;;;;;;8.90;6.20;;;;;;;-0.19;83.04;96557.57;108404;1269;68632;-75
2021/12/20 06:19:30;;;;;;;10.60;6.50;;;;;;;-0.21;83.52;96563.13;108344;1270;68548;-73
2021/12/20 06:21:59;;;;;;;10.50;6.90;;;;;;;-0.32;82.39;96561.89;108307;1269;59697;-73
2021/12/20 06:24:29;;;;;;;11.80;6.20;;;;;;;-0.33;82.92;96568.44;108333;1270;59685;-73
2021/12/20 06:26:59;;;;;;;8.40;6.00;;;;;;;-0.42;82.89;96566.95;108364;1269;71668;-73
2021/12/20 06:29:28;;;;;;;9.30;6.30;;;;;;;-0.52;82.69;96567.20;108305;1269;68765;-74
2021/12/20 06:31:57;;;;;;;9.20;6.50;;;;;;;-0.59;83.03;96577.57;108293;1272;68734;-74
2021/12/20 06:34:26;;;;;;;8.20;6.20;;;;;;;-0.67;82.73;96576.91;108290;1269;59763;-75
2021/12/20 06:36:55;;;;;;;8.60;6.20;;;;;;;-0.71;82.64;96578.46;108254;1269;59688;-74
2021/12/20 06:39:24;;;;;;;9.10;5.80;;;;;;;-0.81;82.76;96581.91;108180;1272;71646;-74
2021/12/20 06:41:53;;;;;;;9.90;5.70;;;;;;;-0.84;82.79;96585.65;108357;1269;68677;-73
2021/12/20 06:44:23;;;;;;;7.70;5.60;;;;;;;-0.90;82.73;96588.12;108246;1269;70122;-74
2021/12/20 06:46:52;;;;;;;9.00;6.70;;;;;;;-0.92;82.89;96597.96;108235;1272;59744;-74
2021/12/20 06:49:23;;;;;;;8.30;5.50;;;;;;;-0.99;82.40;96599.94;108246;1269;59702;-74
2021/12/20 06:51:53;;;;;;;;;;;;;;;-1.02;82.47;96604.65;108091;1272;72136;-73
2021/12/20 06:54:22;;;;;;;;;;;;;;;-1.02;82.52;96608.77;108282;1269;68553;-74
2021/12/20 06:56:51;;;;;;;11.10;6.50;;;;;;;-0.98;82.23;96615.45;108330;1269;68651;-74
2021/12/20 06:59:20;;;;;;;10.60;6.30;;;;;;;-0.98;82.12;96620.43;108316;1269;59697;-73
2021/12/20 07:01:50;;;;;;;10.10;6.40;;;;;;;-0.96;82.12;96629.77;108211;1273;59645;-73
2021/12/20 07:04:19;;;;;;;8.50;6.10;;;;;;;-0.93;82.13;96637.65;108138;1271;70966;-73
2021/12/20 07:06:48;;;;;;;10.30;6.50;;;;;;;-0.86;82.43;96641.18;108269;1269;69321;-73
2021/12/20 07:09:23;;;;;;;12.20;6.60;;;;;;;-0.78;82.20;96644.27;108337;1269;68524;-73
2021/12/20 07:11:52;;;;;;;9.90;6.90;;;;;;;-0.73;81.84;96649.88;108314;1272;59620;-74
2021/12/20 07:14:26;;;;;;;9.90;6.30;;;;;;;-0.66;81.87;96653.19;108320;1273;59752;-75
2021/12/20 07:16:56;;;;;;;7.70;5.50;;;;;;;-0.60;80.24;96651.24;108174;1269;70788;-74
2021/12/20 07:19:28;;;;;;;6.80;5.60;;;;;;;-0.49;81.00;96651.31;108316;1269;68214;-74
2021/12/20 07:21:57;;;;;;;9.40;6.30;;;;;;;-0.41;80.17;96651.33;108307;1269;70333;-74
2021/12/20 07:24:27;;;;;;;8.10;5.40;;;;;;;-0.35;80.24;96657.75;108160;1272;59773;-74
2021/12/20 07:26:56;;;;;;;10.30;6.70;;;;;;;-0.26;79.90;96658.23;108400;1269;59700;-73
2021/12/20 07:29:25;;;;;;;8.70;6.30;;;;;;;-0.25;78.83;96659.73;108339;1272;70989;-74
2021/12/20 07:31:54;;;;;;;7.60;6.00;;;;;;;-0.35;77.72;96663.23;108171;1272;68875;-74
2021/12/20 07:34:23;;;;;;;9.00;6.30;;;;;;;-0.33;78.73;96671.17;108256;1270;69318;-74
2021/12/20 07:36:53;;;;;;;6.20;4.90;;;;;;;-0.35;78.98;96677.60;108358;1269;59773;-74
2021/12/20 07:39:22;;;;;;;9.40;6.80;;;;;;;-0.27;79.14;96675.06;108441;1269;59681;-74
2021/12/20 07:41:53;;;;;;;;;;;;;;;-0.29;78.31;96679.09;108449;1269;70248;-74
2021/12/20 07:44:23;;;;;;;12.40;7.20;;;;;;;-0.25;78.75;96680.42;108401;1269;67949;-74
2021/12/20 07:46:53;;;;;;;8.50;5.80;;;;;;;-0.22;78.58;96678.98;108347;1273;70087;-74
2021/12/20 07:49:21;;;;;;;8.80;6.60;;;;;;;-0.25;78.15;96684.38;108414;1272;59837;-74
2021/12/20 07:51:53;;;;;;;9.20;6.60;;;;;;;-0.33;78.65;96687.96;108125;1274;59655;-75
2021/12/20 07:54:22;;;;;;;9.80;6.40;;;;;;;-0.44;78.21;96689.29;108402;1271;71505;-75
2021/12/20 07:56:51;;;;;;;10.20;7.00;;;;;;;-0.50;78.62;96693.64;108422;1269;67982;-75
2021/12/20 07:59:20;;;;;;;7.50;5.50;;;;;;;-0.43;79.36;96699.66;108441;1273;69506;-74
2021/12/20 08:01:49;;;;;;;9.60;6.30;;;;;;;-0.12;80.09;96703.03;108331;1269;59751;-74
2021/12/20 08:04:21;;;;;;;9.40;6.30;;;;;;;0.55;77.01;96704.79;108257;1272;59773;-74
2021/12/20 08:06:50;;;;;;;8.00;5.80;;;;;;;1.19;73.40;96706.86;108099;1272;71649;-75
2021/12/20 08:09:19;;;;;;;8.90;6.50;;;;;;;1.74;73.80;96714.02;108020;1272;68450;-75
2021/12/20 08:11:48;;;;;;;9.10;5.60;;;;;;;2.20;70.08;96710.38;108238;1272;69424;-73
2021/12/20 08:14:17;;;;;;;9.10;5.60;;;;;;;2.37;69.44;96715.71;108452;1269;59760;-76
2021/12/20 08:16:46;;;;;;;8.20;5.80;;;;;;;2.10;68.01;96717.09;108135;1272;60019;-76
2021/12/20 08:19:15;;;;;;;11.80;5.80;;;;;;;1.89;69.56;96727.23;108452;1269;71687;-76
2021/12/20 08:21:44;;;;;;;7.80;5.50;;;;;;;1.84;70.93;96736.91;108060;1269;473044;-75
2021/12/20 08:24:13;;;;;;;10.90;6.40;;;;;;;1.75;69.90;96741.09;108388;1269;68637;-74
2021/12/20 08:26:42;;;;;;;8.60;6.00;;;;;;;1.67;70.78;96745.43;108375;1269;59706;-74
2021/12/20 08:29:11;;;;;;;7.50;5.40;;;;;;;1.62;70.03;96746.56;108402;1273;59706;-75
2021/12/20 08:31:40;;;;;;;7.00;5.90;;;;;;;1.57;70.74;96750.23;108214;1272;71613;-75
2021/12/20 08:34:09;;;;;;;9.00;6.60;;;;;;;1.45;70.85;96757.68;108283;1273;67978;-75
2021/12/20 08:36:38;;;;;;;6.90;4.80;;;;;;;1.32;71.22;96760.85;108298;1270;68977;-75
2021/12/20 08:39:07;;;;;;;7.40;5.80;;;;;;;1.24;70.47;96761.57;108092;1272;59767;-75
2021/12/20 08:41:36;;;;;;;8.00;4.30;;;;;;;1.15;70.33;96766.74;108343;1269;59685;-75
2021/12/20 08:44:05;;;;;;;7.20;4.90;;;;;;;1.11;71.32;96771.95;108243;1272;71649;-75
2021/12/20 08:46:34;;;;;;;9.00;5.80;;;;;;;0.98;71.84;96777.15;108345;1272;68719;-75
2021/12/20 08:49:03;;;;;;;6.60;4.60;;;;;;;0.92;72.12;96779.95;108370;1272;69716;-75
2021/12/20 08:51:32;;;;;;;7.10;4.60;;;;;;;0.94;72.24;96781.09;108386;1269;59770;-75
2021/12/20 08:54:01;;;;;;;8.90;6.10;;;;;;;1.02;72.87;96777.33;108396;1271;59761;-75
2021/12/20 08:56:31;;;;;;;5.40;4.50;;;;;;;1.15;72.66;96777.27;108356;1269;71627;-75
2021/12/20 08:58:59;;;;;;;8.40;6.10;;;;;;;1.28;71.89;96784.73;108366;1272;68677;-76
2021/12/20 09:01:29;;;;;;;5.30;4.10;;;;;;;1.33;70.71;96787.05;108180;1272;69483;-76
2021/12/20 09:03:59;;;;;;;7.10;4.90;;;;;;;1.38;72.03;96788.55;108428;1272;59725;-77
2021/12/20 09:06:30;;;;;;;6.60;4.40;;;;;;;1.56;71.14;96784.96;108493;1273;59758;-76
2021/12/20 09:08:59;;;;;;;6.50;4.50;;;;;;;1.80;70.68;96782.82;108434;1269;71648;-78
2021/12/20 09:11:29;;;;;;;5.50;4.30;;;;;;;1.98;69.00;96780.73;108470;1269;68198;-75
2021/12/20 09:14:03;;;;;;;6.30;4.30;;;;;;;2.06;70.04;96785.34;108439;1269;68729;-76
2021/12/20 09:16:32;;;;;;;6.00;4.10;;;;;;;2.70;67.56;96785.55;108206;1272;59687;-75
2021/12/20 09:19:02;;;;;;;4.90;3.50;;;;;;;3.97;66.10;96787.11;108384;1270;59681;-75
2021/12/20 09:21:31;;;;;;;5.10;3.80;;;;;;;4.75;62.81;96783.19;108439;1273;72206;-76
2021/12/20 09:24:03;;;;;;;4.60;3.90;;;;;;;5.00;60.02;96784.23;108390;1271;68657;-75
2021/12/20 09:26:33;;;;;;;4.80;3.20;;;;;;;5.84;56.07;96786.52;108439;1273;69006;-76
2021/12/20 09:29:02;;;;;;;3.90;3.10;;;;;;;6.41;58.48;96790.64;108391;1269;59757;-78
2021/12/20 09:31:32;;;;;;;5.10;3.40;;;;;;;6.24;56.02;96791.05;108131;1274;59750;-78
2021/12/20 09:34:01;;;;;;;5.50;3.70;;;;;;;5.95;56.84;96794.63;108390;1269;71543;-78
2021/12/20 09:36:33;;;;;;;4.40;3.20;;;;;;;5.30;56.92;96795.39;108407;1272;68685;-80
2021/12/20 09:39:07;;;;;;;4.30;2.70;;;;;;;4.97;57.94;96796.02;108120;1272;70120;-75
2021/12/20 09:44:10;;;;;;;4.10;2.90;;;;;;;4.58;58.38;96799.90;108495;1273;59673;-75
2021/12/20 09:46:39;;;;;;;3.10;2.60;;;;;;;4.07;59.07;96805.07;108439;1273;71535;-75
2021/12/20 09:49:10;;;;;;;5.10;3.60;;;;;;;3.88;59.83;96803.71;108491;1269;67822;-76
2021/12/20 09:51:38;;;;;;;;;;;;;;;3.77;60.63;96803.61;108174;1272;69589;-77
2021/12/20 09:54:07;;;;;;;3.40;2.40;;;;;;;3.60;59.28;96800.25;108128;1272;59694;-76
2021/12/20 09:56:39;;;;;;;4.40;2.70;;;;;;;3.58;61.31;96804.67;108435;1270;59726;-76
2021/12/20 09:59:12;;;;;;;4.00;2.40;;;;;;;3.51;61.23;96811.59;108177;1272;71645;-75
2021/12/20 10:01:44;;;;;;;4.80;3.00;;;;;;;3.43;61.57;96807.55;108449;1272;69221;-75
2021/12/20 10:04:14;;;;;;;3.60;2.10;;;;;;;3.31;61.26;96806.29;108121;1272;68641;-75
2021/12/20 10:06:43;;;;;;;4.30;2.40;;;;;;;3.36;61.91;96813.94;108451;1269;59649;-75
2021/12/20 10:09:15;;;;;;;5.30;3.60;;;;;;;3.48;62.00;96817.27;108128;1273;59745;-75
2021/12/20 10:11:45;;;;;;;4.00;2.60;;;;;;;3.38;61.12;96821.28;108406;1269;72113;-75
2021/12/20 10:14:19;;;;;;;3.50;2.10;;;;;;;3.31;60.89;96820.43;108383;1273;68734;-78
2021/12/20 10:17:03;;;;;;;2.90;2.00;;;;;;;3.15;61.22;96810.96;108175;1272;68693;-76
2021/12/20 10:19:36;;;;;;;4.90;2.70;;;;;;;2.82;60.66;96805.77;108209;1274;59713;-76
2021/12/20 10:22:30;;;;;;;3.30;2.20;;;;;;;2.67;61.36;96807.40;108160;1270;59734;-76
2021/12/20 10:24:59;;;;;;;3.20;2.10;;;;;;;2.86;62.67;96807.80;108125;1274;71721;-78
2021/12/20 10:27:36;;;;;;;2.90;2.40;;;;;;;3.03;61.95;96804.48;108152;1272;68633;-76
2021/12/20 10:30:24;;;;;;;5.30;2.70;;;;;;;3.24;61.53;96801.69;108150;1272;68474;-76
2021/12/20 10:32:55;;;;;;;3.50;2.10;;;;;;;3.62;60.43;96804.60;108128;1274;60084;-77
2021/12/20 10:35:30;;;;;;;3.30;2.40;;;;;;;3.72;59.00;96800.98;108175;1273;59762;-76
2021/12/20 10:38:38;;;;;;;4.30;2.50;;;;;;;3.68;60.22;96800.89;108146;1272;70844;-77
2021/12/20 10:41:24;;;;;;;4.60;2.60;;;;;;;3.52;59.16;96800.16;108145;1272;69173;-77
2021/12/20 10:44:00;;;;;;;5.00;2.40;;;;;;;3.31;60.57;96796.64;108185;1272;69479;-77
2021/12/20 10:46:35;;;;;;;3.80;2.40;;;;;;;3.23;61.10;96796.59;107992;1272;59763;-77
2021/12/20 10:49:14;;;;;;;3.00;2.20;;;;;;;3.28;61.14;96786.33;108144;1275;60078;-77
2021/12/20 10:51:48;;;;;;;4.00;2.40;;;;;;;3.33;60.91;96780.21;108065;1272;71613;-77
2021/12/20 10:54:21;;;;;;;4.60;4.20;;;;;;;3.55;60.22;96773.11;108068;1275;68701;-78
2021/12/20 10:57:05;;;;;;;3.70;2.40;;;;;;;4.30;59.24;96774.41;108143;1275;70099;-77
2021/12/20 10:59:37;;;;;;;3.30;2.60;;;;;;;5.39;57.66;96772.87;107900;1275;59790;-77
2021/12/20 11:05:01;;;;;;;3.80;2.30;;;;;;;6.59;52.04;96769.87;108088;1274;71416;-77
2021/12/20 11:10:06;;;;;;;4.30;2.60;;;;;;;6.56;52.18;96778.70;108097;1272;68687;-76
2021/12/20 11:12:36;;;;;;;3.50;2.50;;;;;;;6.13;50.50;96783.27;108076;1273;60106;-76
2021/12/20 11:15:11;;;;;;;2.90;2.10;;;;;;;5.38;52.20;96792.34;108091;1272;59649;-76
2021/12/20 11:17:43;;;;;;;3.20;2.40;;;;;;;4.85;53.77;96792.80;108055;1272;70579;-76
2021/12/20 11:20:22;;;;;;;2.90;2.50;;;;;;;4.47;55.28;96791.05;108118;1276;67996;-76
2021/12/20 11:23:02;;;;;;;3.70;2.10;;;;;;;4.09;55.95;96792.69;108036;1272;68738;-77
2021/12/20 11:25:31;;;;;;;3.20;2.10;;;;;;;3.71;56.90;96798.27;108153;1272;59760;-77
2021/12/20 11:28:03;;;;;;;2.90;2.20;;;;;;;3.45;58.15;96797.42;108107;1272;59757;-76
2021/12/20 11:30:31;;;;;;;2.60;2.30;;;;;;;3.25;58.74;96793.16;108144;1272;70992;-77
2021/12/20 11:33:00;;;;;;;4.40;2.20;;;;;;;3.12;59.84;96802.31;108082;1273;68749;-76
2021/12/20 11:35:32;;;;;;;4.40;2.00;;;;;;;3.04;60.16;96812.70;108066;1271;70012;-76
2021/12/20 11:38:01;;;;;;;4.00;3.50;;;;;;;2.84;60.95;96814.92;108098;1275;59751;-76
2021/12/20 11:40:30;;;;;;;3.70;2.70;;;;;;;2.75;61.06;96811.64;108096;1272;59689;-76
2021/12/20 11:43:00;;;;;;;3.20;2.40;;;;;;;2.72;61.18;96818.86;108075;1273;72339;-76
2021/12/20 11:45:29;;;;;;;3.50;2.70;;;;;;;2.61;61.79;96824.07;108087;1272;68712;-76
2021/12/20 11:48:05;;;;;;;4.00;2.60;;;;;;;2.59;62.19;96830.02;108033;1275;68727;-77
2021/12/20 11:50:43;;;;;;;3.30;2.30;;;;;;;2.53;61.90;96830.14;108127;1272;59731;-77
2021/12/20 11:53:17;;;;;;;2.90;2.30;;;;;;;2.32;61.83;96826.86;108174;1275;59694;-76
2021/12/20 11:55:50;;;;;;;2.80;2.30;;;;;;;2.23;62.45;96833.12;108135;1274;72064;-76
2021/12/20 11:58:30;;;;;;;4.60;3.60;;;;;;;2.15;62.91;96839.58;108144;1272;68267;-76
2021/12/20 12:01:15;;;;;;;3.20;2.00;;;;;;;1.98;63.48;96836.73;108147;1272;68678;-76
2021/12/20 12:03:53;;;;;;;3.90;2.30;;;;;;;1.85;63.15;96838.20;108171;1272;59679;-77
2021/12/20 12:06:30;;;;;;;4.10;2.80;;;;;;;1.74;63.86;96842.68;108223;1275;59755;-76
2021/12/20 12:09:01;;;;;;;6.90;4.70;;;;;;;1.70;64.46;96850.08;108041;1272;72230;-76